Time;durP1;ratioP1;P1;durP2;ratioP2;P2;SDS_P1;SDS_P2;PMS_P1;PMS_P2;Temp;Humidity;BMP_temperature;BMP_pressure;BME280_temperature;BME280_humidity;BME280_pressure;Samples;Min_cycle;Max_cycle;Signal;HPM_P1;HPM_P2
2023/08/23 00:01:11;;;;;;;2.63;2.42;;;24.20;99.90;;;;;;4991679;28;20484;-39
2023/08/23 00:03:36;;;;;;;3.90;2.17;;;24.20;99.90;;;;;;4991705;28;20057;-37
2023/08/23 00:06:02;;;;;;;2.83;2.60;;;24.20;99.90;;;;;;4990388;28;20343;-39
2023/08/23 00:08:27;;;;;;;2.78;2.45;;;24.10;99.90;;;;;;4991744;28;20030;-42
2023/08/23 00:10:56;;;;;;;3.03;2.30;;;24.10;99.90;;;;;;4991490;28;20392;-38
2023/08/23 00:13:22;;;;;;;4.07;2.50;;;24.10;99.90;;;;;;4991635;28;20027;-37
2023/08/23 00:15:48;;;;;;;3.80;2.38;;;24.20;99.90;;;;;;4991602;28;20055;-38
2023/08/23 00:18:14;;;;;;;2.53;2.17;;;24.10;99.90;;;;;;4990467;28;20022;-40
2023/08/23 00:20:39;;;;;;;3.83;2.33;;;24.20;99.90;;;;;;4991821;28;20030;-42
2023/08/23 00:23:05;;;;;;;3.35;2.70;;;24.10;99.90;;;;;;4991621;28;20049;-44
2023/08/23 00:25:30;;;;;;;3.35;2.92;;;24.10;99.90;;;;;;4990315;28;20026;-44
2023/08/23 00:27:56;;;;;;;2.55;2.35;;;24.10;99.90;;;;;;4990300;28;20121;-42
2023/08/23 00:30:22;;;;;;;4.85;2.30;;;24.10;99.90;;;;;;4991166;28;20110;-41
2023/08/23 00:32:48;;;;;;;2.90;2.30;;;24.10;99.90;;;;;;4991461;28;20102;-41
2023/08/23 00:35:13;;;;;;;3.60;2.40;;;24.10;99.90;;;;;;4993167;28;20030;-39
2023/08/23 00:37:39;;;;;;;2.75;2.42;;;24.10;99.90;;;;;;4995006;28;20034;-37
2023/08/23 00:40:07;;;;;;;3.10;2.47;;;24.10;99.90;;;;;;4995034;28;20037;-39
2023/08/23 00:42:32;;;;;;;2.55;2.30;;;24.10;99.90;;;;;;4995038;28;20407;-40
2023/08/23 00:44:58;;;;;;;3.75;2.15;;;24.10;99.90;;;;;;4994926;28;20037;-38
2023/08/23 00:47:23;;;;;;;2.42;2.00;;;24.10;99.90;;;;;;4994827;28;20041;-36
2023/08/23 00:49:49;;;;;;;3.25;2.20;;;24.10;99.90;;;;;;4994878;28;20034;-39
2023/08/23 00:52:16;;;;;;;2.90;2.50;;;24.10;99.90;;;;;;4994880;28;20057;-39
2023/08/23 00:54:41;;;;;;;3.75;2.53;;;24.10;99.90;;;;;;4994764;28;20050;-41
2023/08/23 00:57:07;;;;;;;2.83;2.35;;;24.10;99.90;;;;;;4994714;28;20081;-41
2023/08/23 00:59:35;;;;;;;4.05;2.60;;;24.10;99.90;;;;;;4994445;28;20088;-40
2023/08/23 01:02:01;;;;;;;3.47;2.63;;;24.10;99.90;;;;;;4994587;28;20034;-40
2023/08/23 01:04:27;;;;;;;3.13;2.50;;;24.10;99.90;;;;;;4994591;28;20101;-42
2023/08/23 01:07:16;;;;;;;4.90;2.30;;;24.10;99.90;;;;;;4994477;28;20465;-41
2023/08/23 01:10:12;;;;;;;3.05;2.60;;;24.00;99.90;;;;;;4994253;28;20034;-39
2023/08/23 01:12:49;;;;;;;2.47;2.28;;;24.00;99.90;;;;;;4994444;28;20054;-39
2023/08/23 01:15:17;;;;;;;2.50;2.30;;;24.10;99.90;;;;;;4994442;28;20030;-40
2023/08/23 01:17:43;;;;;;;5.35;2.60;;;24.10;99.90;;;;;;4994330;28;20027;-39
2023/08/23 01:20:11;;;;;;;5.22;2.60;;;24.10;99.90;;;;;;4994139;28;20026;-39
2023/08/23 01:22:41;;;;;;;4.63;2.42;;;24.10;99.90;;;;;;4994288;28;20111;-37
2023/08/23 01:25:07;;;;;;;3.28;2.50;;;24.10;99.90;;;;;;4994132;28;20026;-37
2023/08/23 01:27:34;;;;;;;2.42;2.22;;;24.00;99.90;;;;;;4994176;28;20441;-42
2023/08/23 01:30:00;;;;;;;2.92;2.20;;;24.00;99.90;;;;;;4993891;28;20427;-41
2023/08/23 01:32:42;;;;;;;3.47;2.60;;;24.00;99.90;;;;;;4994330;28;20644;-42
2023/08/23 01:35:17;;;;;;;5.25;2.40;;;24.00;99.90;;;;;;4994121;28;20030;-44
2023/08/23 01:37:48;;;;;;;3.17;2.58;;;24.00;99.90;;;;;;4993921;28;20034;-39
2023/08/23 01:40:15;;;;;;;2.90;2.60;;;24.00;99.90;;;;;;4993870;28;20408;-44
2023/08/23 01:42:42;;;;;;;4.22;2.30;;;24.00;99.90;;;;;;4993973;28;20423;-37
2023/08/23 01:45:08;;;;;;;3.40;2.17;;;24.00;99.90;;;;;;4993863;28;20110;-41
2023/08/23 01:47:34;;;;;;;2.75;2.17;;;24.00;99.90;;;;;;4993200;28;20109;-37
2023/08/23 01:50:00;;;;;;;3.75;2.33;;;24.00;99.90;;;;;;4993473;28;20026;-40
2023/08/23 01:52:25;;;;;;;2.60;2.17;;;24.00;99.90;;;;;;4993815;28;20035;-41
2023/08/23 01:54:51;;;;;;;3.13;2.38;;;24.00;99.90;;;;;;4993753;28;20026;-41
2023/08/23 01:57:17;;;;;;;2.30;2.10;;;24.00;99.90;;;;;;4993633;28;20033;-39
2023/08/23 01:59:44;;;;;;;2.30;2.10;;;24.00;99.90;;;;;;4992076;28;20058;-40
2023/08/23 02:02:10;;;;;;;2.42;2.22;;;24.00;99.90;;;;;;4993551;28;20400;-38
2023/08/23 02:04:35;;;;;;;3.35;2.17;;;24.00;99.90;;;;;;4993381;28;20038;-42
2023/08/23 02:07:01;;;;;;;3.00;2.40;;;24.00;99.90;;;;;;4993414;28;20142;-44
2023/08/23 02:09:28;;;;;;;3.13;2.20;;;23.90;99.90;;;;;;4993113;28;20437;-39
2023/08/23 02:11:53;;;;;;;3.22;2.25;;;24.00;99.90;;;;;;4992099;28;20472;-41
2023/08/23 02:14:19;;;;;;;3.20;2.10;;;23.90;99.90;;;;;;4993285;28;20050;-39
2023/08/23 02:16:44;;;;;;;2.38;1.95;;;23.90;99.90;;;;;;4993335;28;20025;-41
2023/08/23 02:19:10;;;;;;;4.22;2.47;;;23.90;99.90;;;;;;4992900;28;20054;-42
2023/08/23 02:21:36;;;;;;;4.43;2.42;;;23.90;99.90;;;;;;4993225;28;20084;-36
2023/08/23 02:24:01;;;;;;;3.35;2.50;;;24.00;99.90;;;;;;4993215;28;20023;-39
2023/08/23 02:26:27;;;;;;;6.05;2.28;;;23.90;99.90;;;;;;4993239;28;20042;-42
2023/08/23 02:28:53;;;;;;;3.20;2.40;;;23.90;99.90;;;;;;4992724;28;20027;-40
2023/08/23 02:31:18;;;;;;;3.05;2.50;;;23.90;99.90;;;;;;4992974;28;20388;-45
2023/08/23 02:33:44;;;;;;;2.83;2.33;;;23.90;99.90;;;;;;4992785;28;20050;-46
2023/08/23 02:36:10;;;;;;;2.70;2.20;;;23.90;99.90;;;;;;4992942;28;20379;-42
2023/08/23 02:38:35;;;;;;;2.75;2.47;;;23.90;99.90;;;;;;4992958;28;20045;-41
2023/08/23 02:41:01;;;;;;;2.83;2.22;;;23.90;99.90;;;;;;4991473;28;20042;-39
2023/08/23 02:43:26;;;;;;;2.83;2.25;;;23.90;99.90;;;;;;4992827;28;20033;-41
2023/08/23 02:45:52;;;;;;;2.47;2.20;;;23.90;99.90;;;;;;4992771;28;20022;-40
2023/08/23 02:48:18;;;;;;;4.65;2.50;;;23.90;99.90;;;;;;4992970;28;20046;-41
2023/08/23 02:50:44;;;;;;;4.28;2.30;;;23.90;99.90;;;;;;4992485;28;20061;-42
2023/08/23 02:53:10;;;;;;;2.92;2.15;;;23.90;99.90;;;;;;4992765;28;20113;-41
2023/08/23 02:55:37;;;;;;;2.25;2.00;;;23.90;99.90;;;;;;4992723;28;20022;-44
2023/08/23 02:58:03;;;;;;;3.47;2.50;;;23.90;99.90;;;;;;4991682;28;20022;-38
2023/08/23 03:00:29;;;;;;;2.95;2.30;;;23.90;99.90;;;;;;4992075;28;20399;-44
2023/08/23 03:02:55;;;;;;;4.65;2.30;;;23.80;99.90;;;;;;4992432;28;20030;-39
2023/08/23 03:05:21;;;;;;;3.95;2.50;;;23.80;99.90;;;;;;4992497;28;20037;-43
2023/08/23 03:07:47;;;;;;;3.42;2.35;;;23.80;99.90;;;;;;4992356;28;20030;-45
2023/08/23 03:10:13;;;;;;;3.78;1.80;;;23.90;99.90;;;;;;4992125;28;20018;-42
2023/08/23 03:12:39;;;;;;;3.45;2.35;;;23.90;99.90;;;;;;4992314;28;20030;-39
2023/08/23 03:15:05;;;;;;;3.78;2.22;;;23.80;99.90;;;;;;4992323;28;20030;-41
2023/08/23 03:17:31;;;;;;;4.10;2.20;;;23.90;99.90;;;;;;4992060;28;20048;-39
2023/08/23 03:19:57;;;;;;;5.20;2.40;;;23.80;99.90;;;;;;4991991;28;20464;-44
2023/08/23 03:22:24;;;;;;;2.40;2.15;;;23.80;99.90;;;;;;4992351;28;20026;-40
2023/08/23 03:24:50;;;;;;;5.57;2.40;;;23.80;99.90;;;;;;4992081;28;20149;-43
2023/08/23 03:27:15;;;;;;;2.40;2.20;;;23.80;99.90;;;;;;4991977;28;20105;-42
2023/08/23 03:29:46;;;;;;;2.75;2.35;;;23.80;99.90;;;;;;4991948;28;20164;-43
2023/08/23 03:32:11;;;;;;;3.22;2.33;;;23.80;99.90;;;;;;4991960;28;20548;-41
2023/08/23 03:34:37;;;;;;;3.33;2.28;;;23.80;99.90;;;;;;4992163;28;20109;-42
2023/08/23 03:37:02;;;;;;;2.60;2.00;;;23.80;99.90;;;;;;4991781;28;20105;-40
2023/08/23 03:39:28;;;;;;;4.10;2.22;;;23.80;99.90;;;;;;4992235;28;20034;-42
2023/08/23 03:41:54;;;;;;;3.25;2.30;;;23.80;99.90;;;;;;4991892;28;20530;-42
2023/08/23 03:44:19;;;;;;;2.83;2.10;;;23.80;99.90;;;;;;4991948;28;20031;-41
2023/08/23 03:46:45;;;;;;;2.83;2.17;;;23.80;99.90;;;;;;4991779;28;20030;-44
2023/08/23 03:49:10;;;;;;;3.92;2.28;;;23.80;99.90;;;;;;4991742;28;20040;-42
2023/08/23 03:51:36;;;;;;;2.65;1.90;;;23.80;99.90;;;;;;4991862;28;20089;-42
2023/08/23 03:54:01;;;;;;;4.18;2.03;;;23.80;99.90;;;;;;4992001;28;20539;-40
2023/08/23 03:56:27;;;;;;;3.03;2.10;;;23.80;99.90;;;;;;4991937;28;20035;-45
2023/08/23 03:58:53;;;;;;;2.58;2.22;;;23.80;99.90;;;;;;4991749;28;20088;-44
2023/08/23 04:01:19;;;;;;;3.17;2.38;;;23.80;99.90;;;;;;4991676;28;20113;-44
2023/08/23 04:03:45;;;;;;;5.03;2.47;;;23.80;99.90;;;;;;4992026;28;20117;-41
2023/08/23 04:06:10;;;;;;;4.30;2.25;;;23.80;99.90;;;;;;4991946;28;20062;-39
2023/08/23 04:08:36;;;;;;;5.05;2.25;;;23.70;99.90;;;;;;4991644;28;20030;-41
2023/08/23 04:11:02;;;;;;;3.83;2.35;;;23.80;99.90;;;;;;4994901;28;20034;-42
2023/08/23 04:13:27;;;;;;;2.90;2.60;;;23.70;99.90;;;;;;4995580;28;20018;-41
2023/08/23 04:15:53;;;;;;;2.45;2.25;;;23.80;99.90;;;;;;4995493;28;20054;-42
2023/08/23 04:18:19;;;;;;;2.80;2.25;;;23.80;99.90;;;;;;4995516;28;20455;-40
2023/08/23 04:20:44;;;;;;;3.35;2.10;;;23.80;99.90;;;;;;4995295;28;20038;-40
2023/08/23 04:23:10;;;;;;;3.45;2.17;;;23.80;99.90;;;;;;4994314;28;20018;-42
2023/08/23 04:25:36;;;;;;;2.75;2.00;;;23.70;99.90;;;;;;4995358;28;20476;-44
2023/08/23 04:28:01;;;;;;;2.85;2.40;;;23.70;99.90;;;;;;4995317;28;20033;-39
2023/08/23 04:30:27;;;;;;;3.08;2.30;;;23.70;99.90;;;;;;4994894;28;20484;-42
2023/08/23 04:32:52;;;;;;;3.42;2.20;;;23.70;99.90;;;;;;4995227;28;20500;-42
2023/08/23 04:35:18;;;;;;;3.13;2.40;;;23.70;99.90;;;;;;4995188;28;20031;-42
2023/08/23 04:37:44;;;;;;;3.47;2.42;;;23.70;99.90;;;;;;4995117;28;20066;-40
2023/08/23 04:40:09;;;;;;;4.47;2.20;;;23.70;99.90;;;;;;4994826;28;20030;-36
2023/08/23 04:42:37;;;;;;;9.15;3.13;;;23.70;99.90;;;;;;4995031;28;20034;-37
2023/08/23 04:45:03;;;;;;;5.40;3.13;;;23.60;99.90;;;;;;4994814;28;20029;-37
2023/08/23 04:47:30;;;;;;;9.48;3.05;;;23.30;99.90;;;;;;4995164;28;20026;-41
2023/08/23 04:49:56;;;;;;;5.47;2.78;;;23.20;99.90;;;;;;4994724;28;20088;-40
2023/08/23 04:52:22;;;;;;;10.95;3.00;;;23.10;99.90;;;;;;4994931;28;20019;-40
2023/08/23 04:54:47;;;;;;;6.07;3.08;;;23.10;99.90;;;;;;4995169;28;20022;-37
2023/08/23 04:57:13;;;;;;;7.85;2.78;;;23.20;99.90;;;;;;4994726;28;20097;-40
2023/08/23 04:59:39;;;;;;;6.75;2.75;;;23.30;99.90;;;;;;4994943;28;20033;-40
2023/08/23 05:02:04;;;;;;;11.93;3.08;;;23.30;99.90;;;;;;4994745;28;20049;-44
2023/08/23 05:04:30;;;;;;;8.05;2.97;;;23.30;99.90;;;;;;4993625;28;20541;-41
2023/08/23 05:06:56;;;;;;;5.60;2.72;;;23.30;99.90;;;;;;4994718;28;20077;-38
2023/08/23 05:09:22;;;;;;;3.75;2.90;;;23.40;99.90;;;;;;4994239;28;20440;-39
2023/08/23 05:11:47;;;;;;;7.63;2.78;;;23.30;99.90;;;;;;4994497;28;20031;-39
2023/08/23 05:14:13;;;;;;;5.47;2.72;;;23.40;99.90;;;;;;4994374;28;20058;-44
2023/08/23 05:16:38;;;;;;;4.68;2.90;;;23.40;99.90;;;;;;4994471;28;20022;-36
2023/08/23 05:19:04;;;;;;;3.22;2.47;;;23.40;99.90;;;;;;4994114;28;20034;-39
2023/08/23 05:21:30;;;;;;;8.52;3.10;;;23.40;99.90;;;;;;4993375;28;20027;-40
2023/08/23 05:23:55;;;;;;;5.35;2.70;;;23.40;99.90;;;;;;4994263;28;20056;-36
2023/08/23 05:26:21;;;;;;;4.68;2.80;;;23.40;99.90;;;;;;4994269;28;20097;-41
2023/08/23 05:28:47;;;;;;;4.30;2.80;;;23.40;99.90;;;;;;4993848;28;20030;-37
2023/08/23 05:31:14;;;;;;;4.72;2.60;;;23.40;99.90;;;;;;4994133;28;20026;-39
2023/08/23 05:33:42;;;;;;;4.15;2.80;;;23.40;99.90;;;;;;4994164;28;20072;-41
2023/08/23 05:36:07;;;;;;;7.93;2.88;;;23.50;99.90;;;;;;4994113;28;20019;-43
2023/08/23 05:38:33;;;;;;;6.13;2.63;;;23.50;99.90;;;;;;4994147;28;20396;-44
2023/08/23 05:40:58;;;;;;;3.67;2.45;;;23.50;99.90;;;;;;4993817;28;20034;-44
2023/08/23 05:43:24;;;;;;;4.28;3.05;;;23.50;99.90;;;;;;4993813;28;20380;-39
2023/08/23 05:45:54;;;;;;;5.00;2.58;;;23.40;99.90;;;;;;4993939;28;20022;-40
2023/08/23 05:48:20;;;;;;;3.47;2.55;;;23.50;99.90;;;;;;4993710;28;20029;-39
2023/08/23 05:50:47;;;;;;;5.72;2.92;;;23.50;99.90;;;;;;4993623;28;20019;-36
2023/08/23 05:53:18;;;;;;;3.75;2.58;;;23.50;99.90;;;;;;4993747;28;20026;-40
2023/08/23 05:55:48;;;;;;;3.13;2.60;;;23.50;99.90;;;;;;4993893;28;20026;-40
2023/08/23 05:58:17;;;;;;;3.78;2.45;;;23.50;99.90;;;;;;4993860;28;20049;-43
2023/08/23 06:00:45;;;;;;;3.33;2.40;;;23.50;99.90;;;;;;4993745;28;20018;-43
2023/08/23 06:03:14;;;;;;;4.78;2.80;;;23.50;99.90;;;;;;4993796;28;20085;-41
2023/08/23 06:05:41;;;;;;;7.82;2.70;;;23.50;99.90;;;;;;4993756;28;20042;-40
2023/08/23 06:08:07;;;;;;;7.20;2.90;;;23.50;99.90;;;;;;4993504;28;20022;-40
2023/08/23 06:10:33;;;;;;;5.65;2.80;;;23.50;99.90;;;;;;4993080;28;20077;-42
2023/08/23 06:12:58;;;;;;;3.95;2.20;;;23.50;99.90;;;;;;4993648;28;20451;-41
2023/08/23 06:15:24;;;;;;;4.78;2.60;;;23.50;99.90;;;;;;4993726;28;20029;-42
2023/08/23 06:17:50;;;;;;;3.80;3.05;;;23.50;99.90;;;;;;4991983;28;20023;-45
2023/08/23 06:20:16;;;;;;;3.97;2.53;;;23.50;99.90;;;;;;4993062;28;20041;-44
2023/08/23 06:22:43;;;;;;;5.45;2.60;;;23.50;99.90;;;;;;4993203;28;20045;-43
2023/08/23 06:25:09;;;;;;;3.35;2.50;;;23.50;99.90;;;;;;4993150;28;20034;-46
2023/08/23 06:27:35;;;;;;;5.82;2.97;;;23.50;99.90;;;;;;4993111;28;20129;-43
2023/08/23 06:30:02;;;;;;;4.80;2.58;;;23.50;99.90;;;;;;4992941;28;20040;-44
2023/08/23 06:32:28;;;;;;;5.05;2.80;;;23.50;99.90;;;;;;4991576;28;20499;-45
2023/08/23 06:34:53;;;;;;;3.63;2.45;;;23.50;99.90;;;;;;4992978;28;20105;-36
2023/08/23 06:37:21;;;;;;;3.47;2.55;;;23.50;99.90;;;;;;4991383;28;20476;-42
2023/08/23 06:39:47;;;;;;;5.93;2.70;;;23.50;99.90;;;;;;4992590;28;20037;-44
2023/08/23 06:42:12;;;;;;;4.97;2.60;;;23.50;99.90;;;;;;4992876;28;20026;-37
2023/08/23 06:44:38;;;;;;;4.28;2.92;;;23.50;99.90;;;;;;4993082;28;20527;-40
2023/08/23 06:47:04;;;;;;;6.97;2.70;;;23.50;99.90;;;;;;4993044;28;20105;-42
2023/08/23 06:49:30;;;;;;;6.13;2.58;;;23.50;99.90;;;;;;4991177;28;20027;-39
2023/08/23 06:51:55;;;;;;;5.22;2.83;;;23.50;99.90;;;;;;4992648;28;20085;-41
2023/08/23 06:54:21;;;;;;;3.22;2.47;;;23.50;99.90;;;;;;4992545;28;20026;-42
2023/08/23 06:56:47;;;;;;;7.43;2.85;;;23.50;99.90;;;;;;4992681;28;20392;-47
2023/08/23 06:59:13;;;;;;;3.42;2.22;;;23.60;99.90;;;;;;4992288;28;20105;-41
2023/08/23 07:01:38;;;;;;;3.00;2.50;;;23.50;99.90;;;;;;4991308;28;20124;-43
2023/08/23 07:04:04;;;;;;;2.63;2.42;;;23.60;99.90;;;;;;4991125;28;20113;-42
2023/08/23 07:06:31;;;;;;;2.72;2.33;;;23.60;99.90;;;;;;4992336;28;20488;-39
2023/08/23 07:08:57;;;;;;;3.95;2.47;;;23.60;99.90;;;;;;4992072;28;20105;-38
2023/08/23 07:11:23;;;;;;;5.10;2.80;;;23.60;99.90;;;;;;4992367;28;20175;-40
2023/08/23 07:13:48;;;;;;;3.15;2.47;;;23.60;99.90;;;;;;4992474;28;20034;-40
2023/08/23 07:16:14;;;;;;;4.45;2.50;;;23.60;99.90;;;;;;4992720;28;20065;-40
2023/08/23 07:18:39;;;;;;;3.55;2.50;;;23.60;99.90;;;;;;4992147;28;20468;-43
2023/08/23 07:21:05;;;;;;;4.18;2.65;;;23.60;99.90;;;;;;4991954;28;20109;-41
2023/08/23 07:23:31;;;;;;;2.75;2.25;;;23.60;99.90;;;;;;4990792;28;20054;-40
2023/08/23 07:25:56;;;;;;;3.20;2.28;;;23.60;99.90;;;;;;4990884;28;20053;-45
2023/08/23 07:28:22;;;;;;;9.80;3.60;;;23.70;99.90;;;;;;4991914;28;20022;-42
2023/08/23 07:30:56;;;;;;;10.02;3.38;;;23.60;99.90;;;;;;4991885;28;20105;-41
2023/08/23 07:33:25;;;;;;;10.73;3.38;;;23.60;99.90;;;;;;4992012;28;20377;-44
2023/08/23 07:35:59;;;;;;;11.45;3.72;;;23.60;99.90;;;;;;4990630;28;20022;-44
2023/08/23 07:38:25;;;;;;;8.45;3.22;;;23.60;99.90;;;;;;4992147;28;20046;-41
2023/08/23 07:41:02;;;;;;;8.05;3.30;;;23.60;99.90;;;;;;4991882;28;20035;-44
2023/08/23 07:43:27;;;;;;;9.02;3.53;;;23.50;99.90;;;;;;4990760;28;20015;-41
2023/08/23 07:45:55;;;;;;;6.75;3.15;;;23.50;99.90;;;;;;4991384;28;20037;-43
2023/08/23 07:48:22;;;;;;;8.18;4.00;;;23.50;99.90;;;;;;4991752;28;20026;-42
2023/08/23 07:50:51;;;;;;;7.45;3.50;;;23.50;99.90;;;;;;4991704;28;20053;-43
2023/08/23 07:53:17;;;;;;;8.15;3.45;;;23.50;99.90;;;;;;4991939;28;20388;-42
2023/08/23 07:55:44;;;;;;;6.55;3.38;;;23.60;99.90;;;;;;4990810;28;20471;-44
2023/08/23 07:58:10;;;;;;;10.40;3.22;;;23.50;99.90;;;;;;4991834;28;20045;-46
2023/08/23 08:00:36;;;;;;;5.18;3.05;;;23.50;99.90;;;;;;4991649;28;20034;-43
2023/08/23 08:03:03;;;;;;;6.95;3.47;;;23.50;99.90;;;;;;4992100;28;20574;-40
2023/08/23 08:05:29;;;;;;;5.72;3.33;;;23.60;99.90;;;;;;4992123;28;20057;-41
2023/08/23 08:07:55;;;;;;;7.80;3.55;;;23.50;99.90;;;;;;4991845;28;20032;-39
2023/08/23 08:10:21;;;;;;;8.30;3.45;;;23.50;99.90;;;;;;4990133;28;20117;-39
2023/08/23 08:12:47;;;;;;;9.77;3.70;;;23.60;99.90;;;;;;4991691;28;20035;-41
2023/08/23 08:15:13;;;;;;;6.05;3.03;;;23.50;99.90;;;;;;4991742;28;20099;-40
2023/08/23 08:17:39;;;;;;;12.52;3.85;;;23.50;99.90;;;;;;4991477;28;20022;-40
2023/08/23 08:20:08;;;;;;;11.95;3.65;;;23.60;99.90;;;;;;4991395;28;20061;-39
2023/08/23 08:22:34;;;;;;;12.75;3.60;;;23.60;99.90;;;;;;4991924;28;20022;-40
2023/08/23 08:25:00;;;;;;;5.88;3.50;;;23.70;99.90;;;;;;4991551;28;20027;-40
2023/08/23 08:27:26;;;;;;;8.10;3.20;;;23.70;99.90;;;;;;4991596;28;20169;-39
2023/08/23 08:29:51;;;;;;;8.50;3.20;;;23.80;99.90;;;;;;4991208;28;20097;-41
2023/08/23 08:32:17;;;;;;;8.52;3.42;;;23.80;99.90;;;;;;4991464;28;20026;-39
2023/08/23 08:34:43;;;;;;;7.40;3.03;;;23.80;99.90;;;;;;4990316;28;20030;-40
2023/08/23 08:37:09;;;;;;;5.65;2.95;;;23.80;99.90;;;;;;4991384;28;20026;-40
2023/08/23 08:39:34;;;;;;;9.18;3.45;;;24.00;99.90;;;;;;4991330;28;20058;-41
2023/08/23 08:42:00;;;;;;;9.73;3.22;;;24.10;99.90;;;;;;4991445;28;20027;-42
2023/08/23 08:44:26;;;;;;;8.38;2.97;;;24.20;99.90;;;;;;4991862;28;20034;-39
2023/08/23 08:46:52;;;;;;;11.57;3.03;;;24.10;99.90;;;;;;4991258;28;20507;-40
2023/08/23 08:49:18;;;;;;;9.13;2.95;;;24.10;99.90;;;;;;4991221;28;20030;-39
2023/08/23 08:51:47;;;;;;;7.28;3.03;;;24.10;99.90;;;;;;4991595;28;20038;-40
2023/08/23 08:54:16;;;;;;;6.53;3.28;;;24.00;99.90;;;;;;4991363;28;20034;-40
2023/08/23 08:56:46;;;;;;;8.52;3.30;;;24.00;99.90;;;;;;4992437;28;20480;-39
2023/08/23 08:59:12;;;;;;;7.85;3.03;;;23.90;99.90;;;;;;4994431;28;20038;-41
2023/08/23 09:01:38;;;;;;;10.90;3.40;;;24.10;99.90;;;;;;4994786;28;20030;-40
2023/08/23 09:04:04;;;;;;;15.15;2.92;;;24.00;99.90;;;;;;4994701;28;20045;-39
2023/08/23 09:06:32;;;;;;;10.63;3.13;;;24.10;99.90;;;;;;4994726;28;20061;-39
2023/08/23 09:09:00;;;;;;;8.85;3.10;;;24.20;99.90;;;;;;4994272;28;20038;-42
2023/08/23 09:11:26;;;;;;;10.68;3.50;;;24.40;99.90;;;;;;4993438;28;20019;-42
2023/08/23 09:13:52;;;;;;;7.57;3.15;;;24.50;99.90;;;;;;4994774;28;20033;-40
2023/08/23 09:16:17;;;;;;;7.40;2.65;;;24.50;99.90;;;;;;4994607;28;20018;-42
2023/08/23 09:18:44;;;;;;;11.48;3.33;;;24.50;99.90;;;;;;4994380;28;20054;-39
2023/08/23 09:21:12;;;;;;;6.88;2.85;;;24.50;99.90;;;;;;4994434;28;20499;-40
2023/08/23 09:23:37;;;;;;;7.72;2.67;;;24.60;99.90;;;;;;4994301;28;20026;-40
2023/08/23 09:26:05;;;;;;;4.60;2.92;;;24.80;99.90;;;;;;4994277;28;20531;-40
2023/08/23 09:28:32;;;;;;;10.10;2.72;;;24.80;99.90;;;;;;4994006;28;20121;-42
2023/08/23 09:30:58;;;;;;;5.70;2.63;;;24.80;99.90;;;;;;4993982;28;20023;-41
2023/08/23 09:33:25;;;;;;;6.70;2.70;;;24.80;99.90;;;;;;4994129;28;20062;-39
2023/08/23 09:35:51;;;;;;;7.97;2.97;;;24.80;99.90;;;;;;4994081;28;20101;-41
2023/08/23 09:38:22;;;;;;;12.52;3.63;;;24.80;99.90;;;;;;4994403;28;20169;-42
2023/08/23 09:40:48;;;;;;;7.07;2.80;;;24.80;99.90;;;;;;4993764;28;20038;-44
2023/08/23 09:43:17;;;;;;;5.70;2.60;;;24.80;99.90;;;;;;4994010;28;20495;-47
2023/08/23 09:45:44;;;;;;;4.93;2.72;;;24.90;99.90;;;;;;4994095;28;20115;-41
2023/08/23 09:48:11;;;;;;;8.50;3.00;;;25.20;99.90;;;;;;4994082;28;20022;-44
2023/08/23 09:50:37;;;;;;;8.55;3.22;;;25.20;99.90;;;;;;4993923;28;20022;-41
2023/08/23 09:53:05;;;;;;;8.02;2.85;;;25.30;99.90;;;;;;4993773;28;20034;-44
2023/08/23 09:55:32;;;;;;;9.40;3.17;;;25.40;99.90;;;;;;4993635;28;20510;-42
2023/08/23 09:58:00;;;;;;;7.38;3.15;;;25.50;99.90;;;;;;4993876;28;20071;-42
2023/08/23 10:00:27;;;;;;;9.02;2.78;;;25.50;99.90;;;;;;4993441;28;20030;-41
2023/08/23 10:02:53;;;;;;;8.32;3.10;;;25.40;99.90;;;;;;4993545;28;20487;-42
2023/08/23 10:05:19;;;;;;;9.60;3.28;;;25.30;99.90;;;;;;4993528;28;20038;-42
2023/08/23 10:07:45;;;;;;;8.05;3.17;;;25.20;99.90;;;;;;4993019;28;20113;-42
2023/08/23 10:10:11;;;;;;;9.23;2.95;;;25.10;99.90;;;;;;4993166;28;20038;-44
2023/08/23 10:12:46;;;;;;;10.10;2.67;;;25.40;99.90;;;;;;4993585;28;20085;-42
2023/08/23 10:15:14;;;;;;;8.20;2.63;;;25.40;99.90;;;;;;4993654;28;20583;-44
2023/08/23 10:17:43;;;;;;;7.20;2.90;;;25.40;99.90;;;;;;4992135;28;20034;-41
2023/08/23 10:20:10;;;;;;;11.60;3.00;;;25.50;99.90;;;;;;4993422;28;20030;-41
2023/08/23 10:22:37;;;;;;;5.95;2.70;;;25.40;99.90;;;;;;4993244;28;20053;-45
2023/08/23 10:25:17;;;;;;;6.22;2.90;;;25.30;99.90;;;;;;4993275;28;20042;-41
2023/08/23 10:27:46;;;;;;;5.57;2.80;;;25.20;99.90;;;;;;4993315;28;20035;-45
2023/08/23 10:30:20;;;;;;;7.45;2.85;;;25.20;99.90;;;;;;4992822;28;20030;-46
2023/08/23 10:32:45;;;;;;;9.48;2.90;;;25.10;99.90;;;;;;4993060;28;20037;-41
2023/08/23 10:35:32;;;;;;;5.40;2.67;;;25.20;99.90;;;;;;4992896;28;20026;-42
2023/08/23 10:37:58;;;;;;;7.68;2.80;;;25.20;99.90;;;;;;4992794;28;20484;-41
2023/08/23 10:40:28;;;;;;;6.88;2.90;;;25.10;99.90;;;;;;4991718;28;20030;-42
2023/08/23 10:42:56;;;;;;;7.25;3.00;;;25.10;99.90;;;;;;4993946;28;20042;-42
2023/08/23 10:45:24;;;;;;;5.75;2.75;;;25.10;99.90;;;;;;4993060;28;20395;-40
2023/08/23 10:47:51;;;;;;;6.03;2.58;;;25.10;99.90;;;;;;4992985;28;20431;-45
2023/08/23 10:50:18;;;;;;;6.88;2.72;;;25.10;99.90;;;;;;4993211;28;20027;-41
2023/08/23 10:52:44;;;;;;;6.15;2.85;;;25.30;99.90;;;;;;4993146;28;20015;-42
2023/08/23 10:55:10;;;;;;;3.70;3.03;;;25.30;99.90;;;;;;4991550;28;20026;-43
2023/08/23 10:57:37;;;;;;;5.82;2.90;;;25.30;99.90;;;;;;4993590;28;20077;-42
2023/08/23 11:00:04;;;;;;;7.63;3.00;;;25.20;99.90;;;;;;4991165;28;20030;-42
2023/08/23 11:02:31;;;;;;;5.53;2.90;;;25.20;99.90;;;;;;4975725;28;20023;-41
2023/08/23 11:04:59;;;;;;;4.43;2.70;;;25.20;99.90;;;;;;4992886;28;20030;-44
2023/08/23 11:07:26;;;;;;;7.65;2.70;;;25.20;99.90;;;;;;4992778;28;20076;-42
2023/08/23 11:09:54;;;;;;;5.50;2.80;;;25.20;99.90;;;;;;4992889;28;20110;-40
2023/08/23 11:12:21;;;;;;;4.80;2.67;;;25.20;99.90;;;;;;4991441;28;20033;-46
2023/08/23 11:14:47;;;;;;;5.40;2.65;;;25.20;99.90;;;;;;4991501;28;20049;-43
2023/08/23 11:17:14;;;;;;;4.13;2.60;;;25.10;99.90;;;;;;4967231;28;20422;-41
2023/08/23 11:19:41;;;;;;;3.28;2.40;;;25.10;99.90;;;;;;5010042;28;20396;-44
2023/08/23 11:22:10;;;;;;;3.90;2.65;;;25.10;99.90;;;;;;5012336;28;20033;-45
2023/08/23 11:24:39;;;;;;;3.30;2.50;;;25.10;99.90;;;;;;5012386;28;20105;-41
2023/08/23 11:27:13;;;;;;;3.90;2.45;;;25.10;99.90;;;;;;5010958;28;20121;-40
2023/08/23 11:29:40;;;;;;;4.55;2.65;;;25.10;99.90;;;;;;5011992;28;20498;-41
2023/08/23 11:32:06;;;;;;;4.43;2.50;;;25.10;99.90;;;;;;5010907;28;20036;-44
2023/08/23 11:34:33;;;;;;;5.22;2.45;;;25.10;99.90;;;;;;5012738;28;20479;-40
2023/08/23 11:36:59;;;;;;;3.58;2.47;;;25.10;99.90;;;;;;5011073;28;20545;-44
2023/08/23 11:39:26;;;;;;;2.50;2.30;;;25.10;99.90;;;;;;5012471;28;20026;-40
2023/08/23 11:41:52;;;;;;;6.15;2.53;;;25.10;99.90;;;;;;5012691;28;20021;-40
2023/08/23 11:44:20;;;;;;;6.13;2.58;;;25.00;99.90;;;;;;5012266;28;20495;-41
2023/08/23 11:46:48;;;;;;;2.75;2.15;;;25.10;99.90;;;;;;5012241;28;20026;-40
2023/08/23 11:49:18;;;;;;;3.42;2.30;;;25.10;99.90;;;;;;5011830;28;20175;-41
2023/08/23 11:51:50;;;;;;;3.55;2.40;;;25.10;99.90;;;;;;5012335;28;20337;-42
2023/08/23 11:54:17;;;;;;;3.88;2.20;;;25.10;99.90;;;;;;5012098;28;20033;-41
2023/08/23 11:56:45;;;;;;;4.75;2.70;;;25.10;99.90;;;;;;5012505;28;20024;-41
2023/08/23 11:59:15;;;;;;;3.33;2.13;;;25.00;99.90;;;;;;5010226;28;20026;-40
2023/08/23 12:01:42;;;;;;;4.93;2.20;;;25.10;99.90;;;;;;5011970;28;20026;-39
2023/08/23 12:04:11;;;;;;;3.78;2.30;;;25.00;99.90;;;;;;5011876;28;20022;-39
2023/08/23 12:06:37;;;;;;;3.30;2.05;;;25.10;99.90;;;;;;5011908;28;20028;-43
2023/08/23 12:09:03;;;;;;;3.95;2.50;;;25.00;99.90;;;;;;5011129;28;20038;-40
2023/08/23 12:11:32;;;;;;;3.28;2.25;;;25.10;99.90;;;;;;5011628;28;20024;-40
2023/08/23 12:14:03;;;;;;;3.60;2.20;;;25.10;99.90;;;;;;5012043;28;20102;-43
2023/08/23 12:16:33;;;;;;;5.30;2.13;;;25.00;99.90;;;;;;5010657;28;20125;-40
2023/08/23 12:19:01;;;;;;;3.65;2.28;;;25.00;99.90;;;;;;5011742;28;20087;-42
2023/08/23 12:21:27;;;;;;;3.85;2.30;;;25.00;99.90;;;;;;5011890;28;20121;-41
2023/08/23 12:23:54;;;;;;;6.03;2.17;;;25.00;99.90;;;;;;5011943;28;20102;-39
2023/08/23 12:26:24;;;;;;;2.38;2.15;;;25.00;99.90;;;;;;5010900;28;20399;-43
2023/08/23 12:28:51;;;;;;;2.63;2.20;;;25.00;99.90;;;;;;5010178;28;20056;-43
2023/08/23 12:31:19;;;;;;;3.70;2.22;;;25.00;99.90;;;;;;5013644;28;20499;-40
2023/08/23 12:33:45;;;;;;;2.90;2.30;;;25.00;99.90;;;;;;5015083;28;20029;-41
2023/08/23 12:36:14;;;;;;;2.28;2.08;;;25.00;99.90;;;;;;5015342;28;20029;-40
2023/08/23 12:38:39;;;;;;;2.45;2.00;;;25.00;99.90;;;;;;5015045;28;20037;-42
2023/08/23 12:41:06;;;;;;;2.72;2.20;;;25.00;99.90;;;;;;5015024;28;20022;-41
2023/08/23 12:43:33;;;;;;;2.67;2.10;;;25.00;99.90;;;;;;5015500;28;20495;-41